Time;durP1;ratioP1;P1;durP2;ratioP2;P2;SDS_P1;SDS_P2;PMS_P1;PMS_P2;Temp;Humidity;BMP_temperature;BMP_pressure;BME280_temperature;BME280_humidity;BME280_pressure;Samples;Min_cycle;Max_cycle;Signal;HPM_P1;HPM_P2
2022/06/15 00:01:16;;;;;;;0.00;0.00;;;15.30;99.90;;;;;;6021593;23;20475;-70
2022/06/15 00:03:45;;;;;;;0.00;0.00;;;15.30;99.90;;;;;;6021798;23;20437;-70
2022/06/15 00:06:17;;;;;;;0.00;0.00;;;15.30;99.90;;;;;;6021889;23;20457;-70
2022/06/15 00:08:46;;;;;;;0.00;0.00;;;15.30;99.90;;;;;;6022250;23;21089;-70
2022/06/15 00:11:18;;;;;;;0.00;0.00;;;15.40;99.90;;;;;;6021734;23;20438;-70
2022/06/15 00:13:47;;;;;;;0.00;0.00;;;15.30;99.90;;;;;;6022441;23;20390;-71
2022/06/15 00:16:15;;;;;;;0.00;0.00;;;15.10;99.90;;;;;;6022110;23;20444;-70
2022/06/15 00:18:45;;;;;;;0.00;0.00;;;15.20;99.90;;;;;;6022796;23;20418;-70
2022/06/15 00:21:17;;;;;;;0.00;0.00;;;15.00;99.90;;;;;;6022653;23;21040;-70
2022/06/15 00:23:45;;;;;;;0.00;0.00;;;14.90;99.90;;;;;;6022901;23;20426;-70
2022/06/15 00:26:14;;;;;;;0.00;0.00;;;14.70;99.90;;;;;;6022416;23;20528;-70
2022/06/15 00:28:42;;;;;;;0.00;0.00;;;14.60;99.90;;;;;;6022624;23;20426;-69
2022/06/15 00:31:10;;;;;;;0.00;0.00;;;14.70;99.90;;;;;;6022717;23;20572;-70
2022/06/15 00:33:38;;;;;;;0.00;0.00;;;14.80;99.90;;;;;;6024137;23;20409;-70
2022/06/15 00:36:08;;;;;;;0.00;0.00;;;14.80;99.90;;;;;;6023642;23;20959;-70
2022/06/15 00:38:40;;;;;;;0.00;0.00;;;14.80;99.90;;;;;;6024153;23;20398;-70
2022/06/15 00:41:11;;;;;;;0.00;0.00;;;14.70;99.90;;;;;;6021938;23;20402;-70
2022/06/15 00:43:42;;;;;;;0.00;0.00;;;14.80;99.90;;;;;;6022719;23;20387;-70
2022/06/15 00:46:21;;;;;;;0.00;0.00;;;14.90;99.90;;;;;;6022300;23;20505;-70
2022/06/15 00:48:52;;;;;;;0.00;0.00;;;14.90;99.90;;;;;;6021839;23;20386;-70
2022/06/15 00:51:20;;;;;;;0.00;0.00;;;14.80;99.90;;;;;;6021846;23;20473;-70
2022/06/15 00:53:49;;;;;;;0.00;0.00;;;14.80;99.90;;;;;;6025946;23;20413;-69
2022/06/15 00:56:19;;;;;;;0.00;0.00;;;14.90;99.90;;;;;;6021476;23;20445;-68
2022/06/15 00:58:51;;;;;;;0.00;0.00;;;14.90;99.90;;;;;;6022379;23;20391;-69
2022/06/15 01:01:19;;;;;;;0.00;0.00;;;15.00;99.90;;;;;;6021800;23;20482;-68
2022/06/15 01:03:50;;;;;;;0.00;0.00;;;15.00;99.90;;;;;;6021839;23;20435;-68
2022/06/15 01:06:40;;;;;;;0.00;0.00;;;15.00;99.90;;;;;;6021951;23;20580;-68
2022/06/15 01:09:19;;;;;;;0.00;0.00;;;15.00;99.90;;;;;;6021250;23;20509;-68
2022/06/15 01:12:01;;;;;;;0.00;0.00;;;15.00;99.90;;;;;;6021449;23;20851;-71
2022/06/15 01:15:02;;;;;;;0.00;0.00;;;15.00;99.90;;;;;;6021446;23;20386;-70
2022/06/15 01:17:50;;;;;;;0.00;0.00;;;15.00;99.90;;;;;;6022178;23;20427;-70
2022/06/15 01:20:57;;;;;;;0.00;0.00;;;15.00;99.90;;;;;;6021844;23;20411;-69
2022/06/15 01:23:51;;;;;;;0.00;0.00;;;14.90;99.90;;;;;;6014858;23;20402;-69
2022/06/15 01:26:50;;;;;;;0.00;0.00;;;14.90;99.90;;;;;;6021657;23;20501;-69
2022/06/15 01:29:36;;;;;;;0.00;0.00;;;14.90;99.90;;;;;;6022047;23;20379;-68
2022/06/15 01:32:10;;;;;;;0.00;0.00;;;15.00;99.90;;;;;;6021226;23;20513;-69
2022/06/15 01:34:46;;;;;;;0.00;0.00;;;15.00;99.90;;;;;;6022167;23;20714;-69
2022/06/15 01:37:22;;;;;;;0.00;0.00;;;15.00;99.90;;;;;;6021970;23;20510;-69
2022/06/15 01:39:57;;;;;;;0.00;0.00;;;14.90;99.90;;;;;;6022483;23;20433;-69
2022/06/15 01:42:30;;;;;;;0.00;0.00;;;14.80;99.90;;;;;;6021252;23;20469;-69
2022/06/15 01:45:01;;;;;;;0.00;0.00;;;14.80;99.90;;;;;;6021807;23;20529;-69
2022/06/15 01:47:33;;;;;;;0.00;0.00;;;15.00;99.90;;;;;;6021169;23;20497;-69
2022/06/15 01:50:06;;;;;;;0.00;0.00;;;15.10;99.90;;;;;;6020802;23;20416;-69
2022/06/15 01:52:39;;;;;;;0.00;0.00;;;15.00;99.90;;;;;;6020964;23;20454;-69
2022/06/15 01:55:10;;;;;;;0.00;0.00;;;15.10;99.90;;;;;;6021312;23;21041;-69
2022/06/15 01:57:39;;;;;;;0.00;0.00;;;15.20;99.90;;;;;;6022035;23;21080;-69
2022/06/15 02:00:10;;;;;;;0.00;0.00;;;15.20;99.90;;;;;;6021769;23;20493;-68
2022/06/15 02:02:50;;;;;;;0.00;0.00;;;15.20;99.90;;;;;;6021401;23;20443;-71
2022/06/15 02:05:26;;;;;;;0.00;0.00;;;15.10;99.90;;;;;;6022913;23;20391;-69
2022/06/15 02:08:04;;;;;;;0.00;0.00;;;15.10;99.90;;;;;;6022029;23;21003;-68
2022/06/15 02:10:37;;;;;;;0.00;0.00;;;15.10;99.90;;;;;;6020552;23;20801;-68
2022/06/15 02:13:11;;;;;;;0.00;0.00;;;15.10;99.90;;;;;;6021732;23;20522;-69
2022/06/15 02:15:42;;;;;;;0.00;0.00;;;15.20;99.90;;;;;;6021644;23;21084;-68
2022/06/15 02:23:42;;;;;;;0.00;0.00;;;15.20;99.90;;;;;;6055797;23;20443;-69
2022/06/15 02:26:12;;;;;;;0.00;0.00;;;15.20;99.90;;;;;;6049815;23;20437;-70
2022/06/15 02:28:44;;;;;;;0.00;0.00;;;15.30;99.90;;;;;;6047794;23;20398;-71
2022/06/15 02:31:12;;;;;;;0.00;0.00;;;15.30;99.90;;;;;;6048849;23;20397;-71
2022/06/15 02:33:48;;;;;;;0.00;0.00;;;15.30;99.90;;;;;;6049307;23;20644;-72
2022/06/15 02:36:16;;;;;;;0.00;0.00;;;15.30;99.90;;;;;;6048925;23;20445;-72
2022/06/15 02:38:49;;;;;;;0.00;0.00;;;15.20;99.90;;;;;;6049036;23;21109;-72
2022/06/15 02:41:19;;;;;;;0.00;0.00;;;15.20;99.90;;;;;;6049433;23;20484;-71
2022/06/15 02:43:48;;;;;;;0.00;0.00;;;15.20;99.90;;;;;;6049247;23;20397;-72
2022/06/15 02:46:18;;;;;;;0.00;0.00;;;15.30;99.90;;;;;;6049408;23;20530;-72
2022/06/15 02:48:47;;;;;;;0.00;0.00;;;15.20;99.90;;;;;;6048850;23;21021;-73
2022/06/15 02:51:18;;;;;;;0.00;0.00;;;15.20;99.90;;;;;;6048973;23;20382;-72
2022/06/15 02:53:49;;;;;;;0.00;0.00;;;15.20;99.90;;;;;;6049958;23;20421;-72
2022/06/15 02:56:19;;;;;;;0.00;0.00;;;15.20;99.90;;;;;;6050103;23;20493;-72
2022/06/15 02:58:49;;;;;;;0.00;0.00;;;15.20;99.90;;;;;;6057408;23;20488;-71
2022/06/15 03:01:18;;;;;;;0.00;0.00;;;15.10;99.90;;;;;;6051105;23;20465;-71
2022/06/15 03:03:47;;;;;;;0.00;0.00;;;15.10;99.90;;;;;;6050058;23;20389;-71
2022/06/15 03:06:18;;;;;;;0.00;0.00;;;15.10;99.90;;;;;;6050908;23;20452;-70
2022/06/15 03:08:47;;;;;;;0.00;0.00;;;15.10;99.90;;;;;;6051485;23;20493;-71
2022/06/15 03:11:15;;;;;;;0.00;0.00;;;15.00;99.90;;;;;;6059441;23;20912;-71
2022/06/15 03:13:42;;;;;;;0.00;0.00;;;15.00;99.90;;;;;;6055734;23;20536;-71
2022/06/15 03:16:10;;;;;;;0.00;0.00;;;15.00;99.90;;;;;;6051351;23;20421;-71
2022/06/15 03:18:38;;;;;;;0.00;0.00;;;15.00;99.90;;;;;;6052248;23;20392;-71
2022/06/15 03:21:06;;;;;;;0.00;0.00;;;15.00;99.90;;;;;;6051274;23;20505;-71
2022/06/15 03:23:34;;;;;;;0.00;0.00;;;15.00;99.90;;;;;;6050762;23;20509;-71
2022/06/15 03:26:05;;;;;;;0.00;0.00;;;15.00;99.90;;;;;;6051092;23;20433;-71
2022/06/15 03:28:34;;;;;;;0.00;0.00;;;14.90;99.90;;;;;;6051326;23;20424;-71
2022/06/15 03:31:02;;;;;;;0.00;0.00;;;15.00;99.90;;;;;;6050643;23;20516;-71
2022/06/15 03:33:30;;;;;;;0.00;0.00;;;15.00;99.90;;;;;;6050759;23;20452;-72
2022/06/15 03:35:58;;;;;;;0.00;0.00;;;15.00;99.90;;;;;;6050994;23;20507;-72
2022/06/15 03:38:25;;;;;;;0.00;0.00;;;15.00;99.90;;;;;;6051227;23;20993;-70
2022/06/15 03:40:54;;;;;;;0.00;0.00;;;15.10;99.90;;;;;;6051298;23;20499;-70
2022/06/15 03:43:23;;;;;;;0.00;0.00;;;15.20;99.90;;;;;;6050412;23;20491;-70
2022/06/15 03:45:51;;;;;;;0.00;0.00;;;15.20;99.90;;;;;;6051240;23;20653;-70
2022/06/15 03:48:19;;;;;;;0.00;0.00;;;15.20;99.90;;;;;;6050859;23;20402;-69
2022/06/15 03:50:47;;;;;;;0.00;0.00;;;15.30;99.90;;;;;;6051034;23;20448;-72
2022/06/15 03:53:14;;;;;;;0.00;0.00;;;15.40;99.90;;;;;;6050822;23;20433;-72
2022/06/15 03:55:43;;;;;;;0.00;0.00;;;15.40;99.90;;;;;;6050659;23;20457;-71
2022/06/15 03:58:14;;;;;;;0.00;0.00;;;15.30;99.90;;;;;;6049744;23;20705;-70
2022/06/15 04:00:44;;;;;;;0.00;0.00;;;15.40;99.90;;;;;;6058810;23;20472;-69
2022/06/15 04:03:12;;;;;;;0.00;0.00;;;15.50;99.90;;;;;;6053173;23;21028;-70
2022/06/15 04:05:42;;;;;;;0.00;0.00;;;15.50;99.90;;;;;;6049486;23;20508;-71
2022/06/15 04:11:01;;;;;;;0.00;0.00;;;15.60;99.90;;;;;;6061222;23;20401;-72
2022/06/15 04:13:29;;;;;;;0.00;0.00;;;15.60;99.90;;;;;;6049736;23;20783;-70
2022/06/15 04:15:58;;;;;;;0.00;0.00;;;15.70;99.90;;;;;;6050110;23;20720;-70
2022/06/15 04:18:26;;;;;;;0.00;0.00;;;15.80;99.90;;;;;;6050130;23;20676;-70
2022/06/15 04:20:54;;;;;;;0.00;0.00;;;15.70;99.90;;;;;;6049898;23;20417;-70
2022/06/15 04:23:23;;;;;;;0.00;0.00;;;15.80;99.90;;;;;;6049616;23;20421;-70
2022/06/15 04:25:53;;;;;;;0.00;0.00;;;15.90;99.90;;;;;;6051148;23;20520;-69
2022/06/15 04:28:29;;;;;;;0.00;0.00;;;16.00;99.90;;;;;;6059621;23;20946;-70
2022/06/15 04:30:59;;;;;;;0.00;0.00;;;16.00;99.90;;;;;;6061375;23;20727;-70
2022/06/15 04:33:28;;;;;;;0.00;0.00;;;16.10;99.90;;;;;;6052121;23;20854;-70
2022/06/15 04:35:56;;;;;;;0.00;0.00;;;16.20;99.90;;;;;;6053843;23;20437;-69
2022/06/15 04:38:25;;;;;;;0.00;0.00;;;16.20;99.90;;;;;;6058993;23;20756;-70
2022/06/15 04:40:53;;;;;;;0.00;0.00;;;16.20;99.90;;;;;;6050024;23;20945;-70
2022/06/15 04:43:21;;;;;;;0.00;0.00;;;16.30;99.90;;;;;;6048981;23;20464;-70
2022/06/15 04:45:49;;;;;;;0.00;0.00;;;16.30;99.90;;;;;;6049852;23;20854;-70
2022/06/15 04:48:18;;;;;;;0.00;0.00;;;16.40;99.90;;;;;;6049687;23;20894;-70
2022/06/15 04:50:46;;;;;;;0.00;0.00;;;16.40;99.90;;;;;;6050374;23;20489;-71
2022/06/15 04:53:14;;;;;;;0.00;0.00;;;16.40;99.90;;;;;;6049191;23;20963;-70
2022/06/15 04:55:42;;;;;;;0.00;0.00;;;16.40;99.90;;;;;;6049757;23;21010;-69
2022/06/15 04:58:10;;;;;;;0.00;0.00;;;16.50;99.90;;;;;;6049619;23;20409;-71
2022/06/15 05:00:41;;;;;;;0.00;0.00;;;16.50;99.90;;;;;;6049603;23;20967;-71
2022/06/15 05:03:09;;;;;;;0.00;0.00;;;16.50;99.90;;;;;;6049710;23;20533;-71
2022/06/15 05:05:39;;;;;;;0.00;0.00;;;16.50;99.90;;;;;;6049472;23;20536;-69
2022/06/15 05:08:07;;;;;;;0.00;0.00;;;16.50;99.90;;;;;;6049948;23;20383;-70
2022/06/15 05:10:35;;;;;;;0.00;0.00;;;16.60;99.90;;;;;;6049563;23;20484;-69
2022/06/15 05:13:06;;;;;;;0.00;0.00;;;16.60;99.90;;;;;;6049447;23;20963;-71
2022/06/15 05:15:34;;;;;;;0.00;0.00;;;16.50;99.90;;;;;;6049745;23;20427;-71
2022/06/15 05:18:04;;;;;;;0.00;0.00;;;16.50;99.90;;;;;;6049436;23;20440;-69
2022/06/15 05:20:35;;;;;;;0.00;0.00;;;16.60;99.90;;;;;;6050025;23;20460;-70
2022/06/15 05:23:05;;;;;;;0.00;0.00;;;16.70;99.90;;;;;;6050387;23;20470;-70
2022/06/15 05:25:33;;;;;;;0.00;0.00;;;16.80;99.90;;;;;;6051202;23;20499;-70
2022/06/15 05:28:02;;;;;;;0.00;0.00;;;16.80;99.90;;;;;;6059515;23;20494;-70
2022/06/15 05:30:30;;;;;;;0.33;0.00;;;16.80;99.90;;;;;;6052965;23;20425;-72
2022/06/15 05:32:58;;;;;;;0.00;0.00;;;16.90;99.90;;;;;;6050391;23;21047;-71
2022/06/15 05:35:26;;;;;;;0.00;0.00;;;16.90;99.90;;;;;;6050139;23;20468;-75
2022/06/15 05:37:54;;;;;;;0.00;0.00;;;17.00;99.90;;;;;;6050655;23;20510;-72
2022/06/15 05:40:23;;;;;;;0.00;0.00;;;17.00;99.90;;;;;;6050076;23;20427;-73
2022/06/15 05:42:51;;;;;;;0.00;0.00;;;17.10;99.90;;;;;;6050859;23;20407;-73
2022/06/15 05:45:19;;;;;;;0.00;0.00;;;17.20;99.90;;;;;;6050246;23;20399;-72
2022/06/15 05:47:47;;;;;;;0.00;0.00;;;17.20;99.90;;;;;;6050501;23;20424;-72
2022/06/15 05:50:22;;;;;;;0.00;0.00;;;17.20;99.90;;;;;;6049703;23;20441;-71
2022/06/15 05:52:50;;;;;;;0.00;0.00;;;17.20;99.90;;;;;;6049656;23;20413;-70
2022/06/15 05:55:17;;;;;;;0.00;0.00;;;17.10;99.90;;;;;;6049128;23;20461;-71
2022/06/15 05:57:47;;;;;;;0.00;0.00;;;17.10;99.90;;;;;;6050093;23;20401;-70
2022/06/15 06:00:18;;;;;;;0.00;0.00;;;17.00;99.90;;;;;;6049689;23;20493;-71
2022/06/15 06:02:45;;;;;;;0.00;0.00;;;17.00;99.90;;;;;;6050561;23;20418;-72
2022/06/15 06:05:14;;;;;;;0.00;0.00;;;17.00;99.90;;;;;;6049994;23;20689;-72
2022/06/15 06:07:41;;;;;;;0.00;0.00;;;16.90;99.90;;;;;;6050222;23;20421;-72
2022/06/15 06:10:10;;;;;;;0.00;0.00;;;16.80;99.90;;;;;;6050149;23;20462;-72
2022/06/15 06:12:39;;;;;;;0.00;0.00;;;16.80;99.90;;;;;;6049910;23;20954;-69
2022/06/15 06:15:09;;;;;;;0.00;0.00;;;16.80;99.90;;;;;;6049505;23;20836;-72
2022/06/15 06:17:39;;;;;;;0.00;0.00;;;16.90;99.90;;;;;;6050098;23;20543;-70
2022/06/15 06:20:09;;;;;;;0.00;0.00;;;16.90;99.90;;;;;;6050336;23;20432;-72
2022/06/15 06:22:37;;;;;;;0.00;0.00;;;16.90;99.90;;;;;;6049599;23;20441;-72
2022/06/15 06:25:06;;;;;;;0.00;0.00;;;16.90;99.90;;;;;;6050347;23;20474;-70
2022/06/15 06:27:34;;;;;;;0.00;0.00;;;16.90;99.90;;;;;;6050195;23;21089;-72
2022/06/15 06:30:03;;;;;;;0.00;0.00;;;16.90;99.90;;;;;;6049438;23;20430;-72
2022/06/15 06:32:32;;;;;;;0.00;0.00;;;16.80;99.90;;;;;;6049156;23;20449;-72
2022/06/15 06:35:00;;;;;;;0.00;0.00;;;16.80;99.90;;;;;;6049507;23;20516;-75
2022/06/15 06:37:30;;;;;;;0.00;0.00;;;16.80;99.90;;;;;;6051834;23;20414;-72
2022/06/15 06:39:57;;;;;;;0.00;0.00;;;16.80;99.90;;;;;;6059558;23;20466;-76
2022/06/15 06:42:25;;;;;;;0.00;0.00;;;16.70;99.90;;;;;;6063175;23;20895;-75
2022/06/15 06:44:53;;;;;;;0.00;0.00;;;16.70;99.90;;;;;;6057329;23;20391;-78
2022/06/15 06:47:21;;;;;;;0.00;0.00;;;16.80;99.90;;;;;;6052789;23;20425;-75
2022/06/15 06:49:50;;;;;;;0.00;0.00;;;16.80;99.90;;;;;;6054412;23;20433;-76
2022/06/15 06:52:18;;;;;;;0.00;0.00;;;16.80;99.90;;;;;;6053923;23;20393;-76
2022/06/15 06:54:46;;;;;;;0.00;0.00;;;16.80;99.90;;;;;;6052251;23;20534;-76
2022/06/15 06:57:14;;;;;;;0.00;0.00;;;16.80;99.90;;;;;;6053435;23;20527;-76
2022/06/15 06:59:42;;;;;;;0.00;0.00;;;16.80;99.90;;;;;;6051452;23;20998;-75
2022/06/15 07:02:11;;;;;;;0.00;0.00;;;16.80;99.90;;;;;;6053232;23;20476;-76
2022/06/15 07:04:39;;;;;;;0.00;0.00;;;16.90;99.90;;;;;;6054583;23;20494;-76
2022/06/15 07:07:08;;;;;;;0.00;0.00;;;16.90;99.90;;;;;;6056369;23;20501;-76
2022/06/15 07:09:36;;;;;;;0.00;0.00;;;17.00;99.90;;;;;;6054014;23;20429;-77
2022/06/15 07:12:05;;;;;;;0.00;0.00;;;17.10;99.90;;;;;;6055457;23;20500;-76
2022/06/15 07:14:33;;;;;;;0.00;0.00;;;17.20;99.90;;;;;;6052890;23;20476;-76
2022/06/15 07:17:01;;;;;;;0.00;0.00;;;17.20;99.90;;;;;;6053767;23;20883;-76
2022/06/15 07:19:29;;;;;;;0.00;0.00;;;17.30;99.90;;;;;;6051355;23;20684;-76
2022/06/15 07:21:57;;;;;;;0.00;0.00;;;17.40;99.90;;;;;;6054666;23;20419;-77
2022/06/15 07:24:26;;;;;;;0.00;0.00;;;17.50;99.90;;;;;;6051870;23;20442;-76
2022/06/15 07:26:54;;;;;;;0.00;0.00;;;17.60;99.90;;;;;;6051072;23;20563;-76
2022/06/15 07:29:23;;;;;;;0.00;0.00;;;17.70;99.90;;;;;;6051080;23;20478;-76
2022/06/15 07:31:56;;;;;;;0.00;0.00;;;17.80;99.90;;;;;;6051445;23;20487;-76
2022/06/15 07:34:24;;;;;;;0.00;0.00;;;17.90;99.90;;;;;;6050299;23;20578;-75
2022/06/15 07:36:52;;;;;;;0.00;0.00;;;17.90;99.90;;;;;;6051016;23;20430;-75
2022/06/15 07:39:27;;;;;;;0.00;0.00;;;17.90;99.90;;;;;;6051181;23;20568;-76
2022/06/15 07:42:05;;;;;;;0.00;0.00;;;18.00;99.90;;;;;;6051466;23;20747;-75
2022/06/15 07:44:35;;;;;;;0.00;0.00;;;18.10;99.90;;;;;;6052026;23;20384;-77
2022/06/15 07:49:55;;;;;;;0.00;0.00;;;18.10;99.90;;;;;;6051909;23;20394;-78
2022/06/15 07:52:45;;;;;;;0.00;0.00;;;18.30;99.90;;;;;;6052612;23;20403;-77
2022/06/15 07:55:16;;;;;;;0.00;0.00;;;18.40;99.90;;;;;;6050415;23;21024;-75
2022/06/15 07:57:45;;;;;;;0.00;0.00;;;18.50;99.90;;;;;;6058433;23;20484;-75
2022/06/15 08:00:15;;;;;;;0.00;0.00;;;18.60;99.90;;;;;;6050725;23;20455;-75
2022/06/15 08:02:43;;;;;;;0.00;0.00;;;18.70;99.90;;;;;;6051397;23;20958;-75
2022/06/15 08:05:12;;;;;;;0.00;0.00;;;18.80;99.90;;;;;;6051287;23;20400;-76
2022/06/15 08:07:41;;;;;;;0.00;0.00;;;18.80;99.90;;;;;;6051950;23;20393;-76
2022/06/15 08:10:10;;;;;;;0.00;0.00;;;19.00;99.90;;;;;;6050989;23;20406;-76
2022/06/15 08:12:38;;;;;;;0.00;0.00;;;19.10;99.90;;;;;;6051537;23;20476;-76
2022/06/15 08:15:09;;;;;;;0.00;0.00;;;19.10;99.90;;;;;;6051961;23;20447;-75
2022/06/15 08:17:41;;;;;;;0.00;0.00;;;19.10;99.90;;;;;;6052332;23;20414;-75
2022/06/15 08:20:19;;;;;;;0.00;0.00;;;19.30;99.90;;;;;;6052075;23;20392;-74
2022/06/15 08:22:53;;;;;;;0.00;0.00;;;19.40;99.90;;;;;;6052887;23;20873;-76
2022/06/15 08:25:32;;;;;;;0.00;0.00;;;19.50;99.90;;;;;;6052301;23;20433;-77
2022/06/15 08:28:01;;;;;;;0.00;0.00;;;19.70;99.90;;;;;;6051684;23;20496;-74
2022/06/15 08:30:34;;;;;;;0.00;0.00;;;19.80;99.90;;;;;;6050736;23;20461;-74
2022/06/15 08:33:02;;;;;;;0.00;0.00;;;19.90;99.90;;;;;;6050769;23;20395;-76
2022/06/15 08:35:30;;;;;;;0.00;0.00;;;20.00;99.90;;;;;;6054090;23;20445;-77
2022/06/15 08:37:58;;;;;;;0.00;0.00;;;20.10;99.90;;;;;;6053052;23;20453;-78
2022/06/15 08:40:28;;;;;;;0.00;0.00;;;20.30;99.90;;;;;;6051180;23;20903;-78
2022/06/15 08:43:01;;;;;;;0.00;0.00;;;20.50;99.90;;;;;;6050257;23;20409;-77
2022/06/15 08:45:36;;;;;;;0.00;0.00;;;20.60;99.90;;;;;;6052051;23;20801;-71
2022/06/15 08:48:19;;;;;;;0.00;0.00;;;20.90;99.90;;;;;;6051261;23;20745;-73
2022/06/15 08:50:56;;;;;;;0.00;0.00;;;21.20;99.90;;;;;;6050103;23;20954;-73
2022/06/15 08:53:32;;;;;;;0.00;0.00;;;21.50;99.90;;;;;;6049879;23;20419;-73
2022/06/15 08:56:05;;;;;;;0.00;0.00;;;21.70;99.90;;;;;;6049828;23;21030;-70
2022/06/15 08:58:41;;;;;;;0.00;0.00;;;21.90;99.90;;;;;;6049413;23;20387;-69
2022/06/15 09:01:19;;;;;;;0.00;0.00;;;22.10;99.90;;;;;;6050177;23;20435;-69
2022/06/15 09:03:59;;;;;;;0.00;0.00;;;22.10;99.90;;;;;;6049698;23;20872;-69
2022/06/15 09:06:39;;;;;;;0.00;0.00;;;22.20;99.90;;;;;;6049117;23;20763;-70
2022/06/15 09:09:24;;;;;;;0.00;0.00;;;22.30;99.90;;;;;;6050122;23;20414;-71
2022/06/15 09:15:03;;;;;;;0.00;0.00;;;22.40;99.90;;;;;;6049700;23;20406;-70
2022/06/15 09:17:34;;;;;;;0.00;0.00;;;22.40;99.90;;;;;;6049066;23;20516;-69
2022/06/15 09:20:08;;;;;;;0.00;0.00;;;22.30;99.90;;;;;;6049406;23;20719;-70
2022/06/15 09:22:39;;;;;;;0.00;0.00;;;22.20;99.90;;;;;;6048881;23;20931;-70
2022/06/15 09:25:22;;;;;;;0.00;0.00;;;22.20;99.90;;;;;;6049272;23;20781;-76
2022/06/15 09:27:57;;;;;;;0.00;0.00;;;22.20;99.90;;;;;;6049403;23;20462;-70
2022/06/15 09:30:29;;;;;;;0.00;0.00;;;22.10;99.90;;;;;;6049058;23;20439;-70
2022/06/15 09:33:02;;;;;;;0.00;0.00;;;21.90;99.90;;;;;;6049097;23;20914;-70
2022/06/15 09:35:34;;;;;;;0.00;0.00;;;21.80;99.90;;;;;;6048426;23;20966;-70
2022/06/15 09:38:05;;;;;;;0.00;0.00;;;21.60;99.90;;;;;;6050774;23;20395;-70
2022/06/15 09:40:42;;;;;;;0.00;0.00;;;21.40;99.90;;;;;;6049939;23;20394;-69
2022/06/15 09:43:17;;;;;;;0.00;0.00;;;21.30;99.90;;;;;;6049089;23;20867;-68
2022/06/15 09:45:51;;;;;;;0.00;0.00;;;21.10;99.90;;;;;;6048895;23;20740;-68
2022/06/15 09:48:31;;;;;;;0.00;0.00;;;21.00;99.90;;;;;;6049632;23;20545;-67
2022/06/15 09:51:04;;;;;;;0.00;0.00;;;21.00;99.90;;;;;;6049154;23;20393;-68
2022/06/15 09:53:42;;;;;;;0.00;0.00;;;20.90;99.90;;;;;;6049864;23;20386;-68
2022/06/15 09:56:15;;;;;;;0.00;0.00;;;20.90;99.90;;;;;;6049301;23;20449;-68
2022/06/15 09:58:51;;;;;;;0.00;0.00;;;20.80;99.90;;;;;;6048699;23;20511;-68
2022/06/15 10:01:20;;;;;;;0.00;0.00;;;20.80;99.90;;;;;;6049245;23;20675;-68
2022/06/15 10:03:53;;;;;;;0.00;0.00;;;20.70;99.90;;;;;;6049430;23;20492;-69
2022/06/15 10:06:27;;;;;;;0.00;0.00;;;20.90;99.90;;;;;;6049142;23;20500;-68
2022/06/15 10:08:57;;;;;;;0.00;0.00;;;21.00;99.90;;;;;;6049587;23;20397;-68
2022/06/15 10:11:30;;;;;;;0.00;0.00;;;20.90;99.90;;;;;;6049416;23;20386;-68
2022/06/15 10:14:16;;;;;;;0.00;0.00;;;21.00;99.90;;;;;;6049198;23;20448;-68
2022/06/15 10:16:54;;;;;;;0.00;0.00;;;21.10;99.90;;;;;;6049181;23;20603;-68
2022/06/15 10:19:25;;;;;;;0.00;0.00;;;21.10;99.90;;;;;;6049555;23;20492;-68
2022/06/15 10:21:58;;;;;;;0.00;0.00;;;21.20;99.90;;;;;;6048968;23;20429;-68
2022/06/15 10:24:29;;;;;;;0.00;0.00;;;21.20;99.90;;;;;;6050030;23;20999;-68
2022/06/15 10:27:28;;;;;;;0.00;0.00;;;21.30;99.90;;;;;;6049138;23;20829;-68
2022/06/15 10:30:00;;;;;;;0.00;0.00;;;21.50;99.90;;;;;;6052339;23;20415;-68
2022/06/15 10:32:30;;;;;;;0.00;0.00;;;21.70;99.90;;;;;;6050435;23;20478;-68
2022/06/15 10:35:12;;;;;;;0.00;0.00;;;22.00;99.90;;;;;;6050747;23;20395;-68
2022/06/15 10:37:44;;;;;;;0.00;0.00;;;22.30;99.90;;;;;;6050336;23;20513;-68
2022/06/15 10:40:22;;;;;;;0.00;0.00;;;22.50;99.90;;;;;;6050086;23;20421;-67
2022/06/15 10:42:53;;;;;;;0.00;0.00;;;22.50;99.90;;;;;;6048563;23;20521;-68
2022/06/15 10:45:25;;;;;;;0.00;0.00;;;22.60;99.90;;;;;;6050992;23;21197;-68
2022/06/15 10:47:57;;;;;;;0.00;0.00;;;22.60;99.90;;;;;;6050658;23;20414;-68
2022/06/15 10:50:30;;;;;;;0.00;0.00;;;22.60;99.90;;;;;;6051158;23;20415;-68
2022/06/15 10:53:31;;;;;;;0.00;0.00;;;22.50;99.90;;;;;;6050255;23;20629;-68
2022/06/15 11:04:30;;;;;;;0.00;0.00;;;22.00;99.90;;;;;;6051874;23;20444;-68
2022/06/15 11:07:07;;;;;;;0.00;0.00;;;21.80;99.90;;;;;;6055444;23;20479;-68
2022/06/15 11:09:38;;;;;;;0.00;0.00;;;21.70;99.90;;;;;;6056091;23;20682;-68
2022/06/15 11:12:22;;;;;;;0.00;0.00;;;21.60;99.90;;;;;;6052289;23;20947;-67
2022/06/15 11:14:54;;;;;;;0.00;0.00;;;21.70;99.90;;;;;;6050136;23;20752;-69
2022/06/15 11:20:35;;;;;;;0.00;0.00;;;21.90;99.90;;;;;;6050608;23;20412;-70
2022/06/15 11:23:11;;;;;;;0.00;0.00;;;21.90;99.90;;;;;;6046862;23;20509;-67
2022/06/15 11:25:46;;;;;;;0.00;0.00;;;21.90;99.90;;;;;;6048970;23;20429;-69
2022/06/15 11:28:20;;;;;;;0.00;0.00;;;22.00;99.90;;;;;;6047828;23;20390;-69
2022/06/15 11:30:55;;;;;;;0.00;0.00;;;22.20;99.90;;;;;;6049538;23;20614;-69
2022/06/15 11:33:29;;;;;;;0.00;0.00;;;22.30;99.90;;;;;;6049489;23;20386;-68
2022/06/15 11:36:06;;;;;;;0.00;0.00;;;22.40;99.90;;;;;;6051131;23;20759;-68
2022/06/15 11:38:47;;;;;;;0.00;0.00;;;22.50;99.90;;;;;;6051839;23;20407;-68
2022/06/15 11:41:24;;;;;;;0.00;0.00;;;22.60;99.90;;;;;;6050913;23;20428;-68
2022/06/15 11:43:54;;;;;;;0.00;0.00;;;22.70;99.90;;;;;;6051373;23;20472;-68
2022/06/15 11:46:35;;;;;;;0.00;0.00;;;22.90;99.90;;;;;;6050772;23;20424;-68
2022/06/15 11:49:14;;;;;;;0.00;0.00;;;23.00;99.90;;;;;;6051189;23;20664;-68
2022/06/15 11:51:51;;;;;;;0.00;0.00;;;23.10;99.90;;;;;;6050786;23;20531;-69
2022/06/15 11:54:45;;;;;;;0.00;0.00;;;23.10;99.90;;;;;;6051691;23;20860;-69
2022/06/15 11:57:26;;;;;;;0.00;0.00;;;23.00;99.90;;;;;;6051136;23;20445;-68
2022/06/15 12:00:03;;;;;;;0.00;0.00;;;22.70;99.90;;;;;;6052379;23;20523;-67
2022/06/15 12:02:47;;;;;;;0.00;0.00;;;22.60;99.90;;;;;;6051127;23;20384;-68
2022/06/15 12:05:35;;;;;;;0.00;0.00;;;22.30;99.90;;;;;;6052087;23;20658;-68
2022/06/15 12:08:20;;;;;;;0.00;0.00;;;22.30;99.90;;;;;;6051865;23;20663;-68
2022/06/15 12:10:52;;;;;;;0.00;0.00;;;22.40;99.90;;;;;;6051260;23;20409;-69
2022/06/15 12:13:39;;;;;;;0.00;0.00;;;22.40;99.90;;;;;;6050379;23;20441;-69
2022/06/15 12:16:11;;;;;;;0.00;0.00;;;22.50;99.90;;;;;;6050199;23;20423;-67
2022/06/15 12:18:54;;;;;;;0.00;0.00;;;22.60;99.90;;;;;;6049978;23;20476;-69
2022/06/15 12:21:29;;;;;;;0.00;0.00;;;22.90;99.90;;;;;;6050332;23;20422;-69
2022/06/15 12:24:04;;;;;;;0.00;0.00;;;23.20;99.90;;;;;;6049891;23;20389;-68
2022/06/15 12:26:44;;;;;;;0.00;0.00;;;23.30;99.90;;;;;;6049772;23;20504;-69
2022/06/15 12:29:29;;;;;;;0.00;0.00;;;23.30;99.90;;;;;;6048676;23;20427;-69
2022/06/15 12:32:15;;;;;;;0.00;0.00;;;23.20;99.90;;;;;;6049867;23;20476;-71
2022/06/15 12:34:50;;;;;;;0.00;0.00;;;23.20;99.90;;;;;;6050210;23;20397;-71
2022/06/15 12:37:26;;;;;;;0.00;0.00;;;23.00;99.90;;;;;;6049111;23;20968;-77
2022/06/15 12:40:13;;;;;;;0.00;0.00;;;22.70;99.90;;;;;;6049778;23;20500;-69
2022/06/15 12:42:49;;;;;;;0.00;0.00;;;22.60;99.90;;;;;;6049284;23;20387;-69
2022/06/15 12:45:22;;;;;;;0.00;0.00;;;22.50;99.90;;;;;;6049280;23;20492;-71
2022/06/15 12:47:55;;;;;;;0.00;0.00;;;22.40;99.90;;;;;;6049802;23;20399;-71
2022/06/15 12:50:37;;;;;;;0.00;0.00;;;22.30;99.90;;;;;;6050205;23;20617;-72
2022/06/15 12:53:17;;;;;;;0.00;0.00;;;22.30;99.90;;;;;;6049368;23;20450;-71
2022/06/15 12:55:53;;;;;;;0.00;0.00;;;22.30;99.90;;;;;;6049494;23;20415;-70
2022/06/15 12:58:29;;;;;;;0.00;0.00;;;22.30;99.90;;;;;;6048995;23;20423;-69
2022/06/15 13:01:02;;;;;;;0.00;0.00;;;22.40;99.90;;;;;;6052013;23;20934;-70
2022/06/15 13:03:46;;;;;;;0.00;0.00;;;22.50;99.90;;;;;;6050512;23;20412;-70
2022/06/15 13:06:23;;;;;;;0.00;0.00;;;22.70;99.90;;;;;;6050550;23;20427;-71
2022/06/15 13:09:06;;;;;;;0.00;0.00;;;23.00;99.90;;;;;;6050897;23;20434;-70
2022/06/15 13:11:46;;;;;;;0.00;0.00;;;23.10;99.90;;;;;;6051838;23;20416;-71
2022/06/15 13:14:18;;;;;;;0.00;0.00;;;23.10;99.90;;;;;;6051081;23;20979;-71
2022/06/15 13:17:00;;;;;;;0.00;0.00;;;23.20;99.90;;;;;;6051397;23;20507;-71
2022/06/15 13:19:31;;;;;;;0.00;0.00;;;23.20;99.80;;;;;;6051203;23;20471;-70
2022/06/15 13:22:09;;;;;;;0.00;0.00;;;23.10;99.70;;;;;;6051227;23;20438;-71
2022/06/15 13:24:52;;;;;;;0.00;0.00;;;23.20;99.60;;;;;;6050121;23;20463;-70
2022/06/15 13:27:23;;;;;;;0.00;0.00;;;23.20;99.90;;;;;;6050573;23;20505;-70
2022/06/15 13:30:18;;;;;;;0.00;0.00;;;23.20;99.80;;;;;;6049538;23;20432;-69
2022/06/15 13:32:54;;;;;;;0.00;0.00;;;23.20;99.90;;;;;;6050208;23;20393;-70
2022/06/15 13:35:25;;;;;;;0.00;0.00;;;23.30;99.90;;;;;;6049967;23;20530;-70
2022/06/15 13:38:03;;;;;;;0.00;0.00;;;23.30;99.60;;;;;;6050629;23;20429;-70
2022/06/15 13:41:10;;;;;;;0.00;0.00;;;23.30;99.90;;;;;;6049697;23;20977;-71
2022/06/15 13:44:11;;;;;;;0.00;0.00;;;23.40;99.70;;;;;;6048943;23;20504;-70